Kaihou Maru — JD2578 — position and weather

sailwx.info

Track history (hours):
 
Tides and Currents Weather Stations Pressure Air Temp Water Temp Dewpoint Dewpoint Depression Visibility Wind Speed Wind Dir Waves Ship Positions

Kaihou Maru

Last reported at 2018-Feb-21 16:50 UTC. Time now 2018-Feb-21 17:33 UTC.
Position N 34°58' E 136°39'.

Length 68 m; draft 4.2 m.

Type: Tanker. MMSI: 431000443.

Date/timePositionNaut miles runAvg speedWind from/ knotsBaromVisibWave heightAir tempDewpointWater temp
2018-Feb-21 16:50N 34°58' E 136°39'0 0.0
2018-Feb-21 16:26N 34°58' E 136°39'0 0.0
2018-Feb-21 15:56N 34°58' E 136°39'0 0.0
2018-Feb-21 15:23N 34°58' E 136°39'0 0.0
2018-Feb-21 14:56N 34°58' E 136°39'0 0.0
2018-Feb-21 14:29N 34°58' E 136°39'0 0.0
2018-Feb-21 13:56N 34°58' E 136°39'0 0.0
2018-Feb-21 13:20N 34°58' E 136°39'0 0.0
2018-Feb-21 12:56N 34°58' E 136°39'0 0.0
2018-Feb-21 12:26N 34°58' E 136°39'0 0.0
2018-Feb-21 11:50N 34°58' E 136°39'0 0.0
2018-Feb-21 11:17N 34°58' E 136°39'0 0.0
2018-Feb-21 10:59N 34°58' E 136°39'0 0.0
2018-Feb-21 10:20N 34°58' E 136°39'0 0.0
2018-Feb-21 09:50N 34°58' E 136°39'0 0.0
2018-Feb-21 09:26N 34°58' E 136°39'0 0.0
2018-Feb-21 08:56N 34°58' E 136°39'0 0.0
2018-Feb-21 08:26N 34°58' E 136°39'0 0.0
2018-Feb-21 07:56N 34°58' E 136°39'0 0.0
2018-Feb-21 07:26N 34°58' E 136°39'0 0.0
2018-Feb-21 06:56N 34°58' E 136°39'0 0.0
2018-Feb-21 06:20N 34°58' E 136°39'0 0.0
2018-Feb-21 05:29N 34°58' E 136°39'0 0.0
2018-Feb-21 04:56N 34°58' E 136°39'0 0.0
2018-Feb-21 04:20N 34°58' E 136°39'0 0.0
2018-Feb-21 03:56N 34°58' E 136°39'0 0.0
2018-Feb-21 03:20N 34°58' E 136°39'0 0.0
2018-Feb-21 02:56N 34°58' E 136°39'0 0.0
2018-Feb-21 02:26N 34°58' E 136°39'0 0.1
2018-Feb-21 01:56N 34°58' E 136°39'0 0.0
2018-Feb-21 01:29N 34°58' E 136°39'0 0.0
2018-Feb-21 00:56N 34°58' E 136°39'0 0.2
2018-Feb-21 00:30N 34°58' E 136°39'2 4.1
2018-Feb-21 00:00N 34°57' E 136°42'612.6
2018-Feb-20 23:30N 34°51' E 136°45'8510.6
2018-Feb-20 15:30N 34°32' E 138°25'6 9.2
2018-Feb-20 14:49N 34°34' E 138°33'4 7.9
2018-Feb-20 14:20N 34°34' E 138°37'3 7.9
2018-Feb-20 13:54N 34°35' E 138°41'7 7.2
2018-Feb-20 12:55N 34°35' E 138°50'4 7.7
2018-Feb-20 12:26N 34°36' E 138°54'711.4
2018-Feb-20 11:48N 34°40' E 139°02'413.6
2018-Feb-20 11:30N 34°43' E 139°05'1113.1
2018-Feb-20 10:38N 34°52' E 139°13'212.0
2018-Feb-20 10:29N 34°53' E 139°15'2311.9
2018-Feb-20 08:35N 35°05' E 139°38'112.2
2018-Feb-20 08:30N 35°06' E 139°39'712.5
2018-Feb-20 07:57N 35°11' E 139°45'511.7
2018-Feb-20 07:30N 35°16' E 139°46'612.0
2018-Feb-20 07:00N 35°21' E 139°42'611.1
2018-Feb-20 06:30N 35°26' E 139°45'612.4
2018-Feb-20 06:00N 35°30' E 139°51'712.3
2018-Feb-20 05:25N 35°32' E 139°60'3 0.6
2018-Feb-19 23:51N 35°32' E 140°04'1 2.1
2018-Feb-19 23:31N 35°32' E 140°03'2 1.7
2018-Feb-19 22:10N 35°33' E 140°05'0 0.0
2018-Feb-19 21:22N 35°33' E 140°05'0 0.0
2018-Feb-19 20:58N 35°33' E 140°05'0 0.0
2018-Feb-19 20:22N 35°33' E 140°05'0 0.0
2018-Feb-19 18:58N 35°33' E 140°05'0 0.0
2018-Feb-19 18:28N 35°33' E 140°05'0 0.0
2018-Feb-19 17:58N 35°33' E 140°05'0 0.0
2018-Feb-19 17:28N 35°33' E 140°05'0 0.0
2018-Feb-19 16:58N 35°33' E 140°05'0 0.0
2018-Feb-19 16:28N 35°33' E 140°05'0 0.0
2018-Feb-19 15:58N 35°33' E 140°05'0 0.0
2018-Feb-19 15:28N 35°33' E 140°05'0 0.0
2018-Feb-19 14:58N 35°33' E 140°05'0 0.0
2018-Feb-19 14:28N 35°33' E 140°05'0 0.0
2018-Feb-19 13:58N 35°33' E 140°05'0 0.0
2018-Feb-19 13:28N 35°33' E 140°05'0 0.0
2018-Feb-19 12:58N 35°33' E 140°05'0 0.0
2018-Feb-19 12:28N 35°33' E 140°05'0 0.0
2018-Feb-19 11:58N 35°33' E 140°05'0 0.0
2018-Feb-19 11:28N 35°33' E 140°05'0 0.0
2018-Feb-19 10:58N 35°33' E 140°05'0 0.0
2018-Feb-19 10:28N 35°33' E 140°05'0 0.0
2018-Feb-19 09:58N 35°33' E 140°05'0 0.0
2018-Feb-19 09:22N 35°33' E 140°05'0 0.0
2018-Feb-19 08:58N 35°33' E 140°05'0 0.1
2018-Feb-19 08:22N 35°33' E 140°05'0 0.1
2018-Feb-19 07:40N 35°33' E 140°05'0 0.0
2018-Feb-19 07:10N 35°33' E 140°05'0 0.0
2018-Feb-19 06:40N 35°33' E 140°05'0 0.0
2018-Feb-19 06:28N 35°33' E 140°05'0 0.0
2018-Feb-19 04:58N 35°33' E 140°05'0 0.0
2018-Feb-19 04:22N 35°33' E 140°05'0 0.0
2018-Feb-19 03:58N 35°33' E 140°05'0 0.0
2018-Feb-19 03:28N 35°33' E 140°05'0 0.0
2018-Feb-19 02:58N 35°33' E 140°05'0 0.0
2018-Feb-19 02:07N 35°33' E 140°05'0 0.0
2018-Feb-19 01:58N 35°33' E 140°05'0 0.0
2018-Feb-19 01:28N 35°33' E 140°05'0 0.0
2018-Feb-19 00:55N 35°33' E 140°05'0 0.0
2018-Feb-18 23:46N 35°33' E 140°05'0 0.8
2018-Feb-18 23:30N 35°33' E 140°05'3 6.8
2018-Feb-18 23:00N 35°34' E 140°01'5 1.7
2018-Feb-18 19:54N 35°36' E 139°55'0 0.1
2018-Feb-18 19:24N 35°36' E 139°55'0 0.0
2018-Feb-18 18:18N 35°36' E 139°55'0 0.0
2018-Feb-18 16:54N 35°36' E 139°55'0 0.0
2018-Feb-18 16:30N 35°36' E 139°55'0 0.0
2018-Feb-18 00:29N 35°36' E 139°55'4 9.0
2018-Feb-18 00:01N 35°32' E 139°53'611.1
2018-Feb-17 23:31N 35°27' E 139°50'611.0
2018-Feb-17 23:00N 35°23' E 139°46'5 9.9
2018-Feb-17 22:31N 35°18' E 139°45'510.7
2018-Feb-17 22:01N 35°13' E 139°47'511.0
2018-Feb-17 21:30N 35°07' E 139°45'510.6
2018-Feb-17 21:00N 35°03' E 139°42'611.3
2018-Feb-17 20:29N 34°59' E 139°36'911.7
2018-Feb-17 19:44N 34°54' E 139°27'411.9
2018-Feb-17 19:24N 34°52' E 139°23'511.7
2018-Feb-17 18:58N 34°49' E 139°18'711.6
2018-Feb-17 18:24N 34°45' E 139°12'510.7
2018-Feb-17 17:54N 34°42' E 139°07'411.0
2018-Feb-17 17:30N 34°39' E 139°03'611.5
2018-Feb-17 17:00N 34°36' E 138°57'612.0
2018-Feb-17 16:29N 34°34' E 138°50'611.9
2018-Feb-17 15:58N 34°34' E 138°42'611.9
2018-Feb-17 15:25N 34°34' E 138°34'33710.3
2018-Feb-16 06:53N 33°23' E 131°58'411.5
2018-Feb-16 06:30N 33°26' E 131°54'713.3
2018-Feb-16 06:00N 33°32' E 131°51'813.4
2018-Feb-16 05:26N 33°39' E 131°47'613.2
2018-Feb-16 05:00N 33°44' E 131°44'1012.9
2018-Feb-16 04:14N 33°53' E 131°40'312.0
2018-Feb-16 04:00N 33°56' E 131°40'611.4
2018-Feb-16 03:28N 34°02' E 131°42'3 0.8
2018-Feb-15 23:35N 34°03' E 131°45'0 0.5
2018-Feb-15 23:30N 34°03' E 131°45'2 3.9
2018-Feb-15 23:00N 34°02' E 131°43'2 2.4
2018-Feb-15 22:12N 34°01' E 131°41'0 0.0
2018-Feb-15 22:00N 34°01' E 131°41'0 0.0
2018-Feb-15 21:24N 34°01' E 131°41'0 0.0
2018-Feb-15 20:54N 34°01' E 131°41'0 0.0
2018-Feb-15 20:24N 34°01' E 131°41'0 0.0
2018-Feb-15 20:00N 34°01' E 131°41'0 0.0
2018-Feb-15 19:30N 34°01' E 131°41'0 0.0
2018-Feb-15 18:42N 34°01' E 131°41'0 0.0
2018-Feb-15 18:30N 34°01' E 131°41'0 0.0
2018-Feb-15 18:00N 34°01' E 131°41'0 0.1
2018-Feb-15 17:18N 34°01' E 131°41'0 0.2
2018-Feb-15 17:00N 34°01' E 131°41'0 0.0
2018-Feb-15 16:30N 34°01' E 131°41'0 0.1
2018-Feb-15 16:00N 34°01' E 131°41'0 0.0
2018-Feb-15 15:24N 34°01' E 131°41'0 0.0
2018-Feb-15 15:00N 34°01' E 131°41'0 0.0
2018-Feb-15 14:24N 34°01' E 131°41'0 0.0
2018-Feb-15 14:00N 34°01' E 131°41'0 0.0
2018-Feb-15 13:30N 34°01' E 131°41'0 0.0
2018-Feb-15 13:00N 34°01' E 131°41'0 0.0
2018-Feb-15 12:30N 34°01' E 131°41'0 0.0
2018-Feb-15 11:54N 34°01' E 131°41'0 0.0
2018-Feb-15 11:30N 34°01' E 131°41'0 0.0
2018-Feb-15 11:00N 34°01' E 131°41'0 0.0
2018-Feb-15 10:30N 34°01' E 131°41'0 0.0
2018-Feb-15 09:54N 34°01' E 131°41'0 0.0
2018-Feb-15 09:30N 34°01' E 131°41'0 0.1
2018-Feb-15 08:54N 34°01' E 131°41'0 0.0
2018-Feb-15 08:18N 34°01' E 131°41'0 0.0
2018-Feb-15 08:00N 34°01' E 131°41'0 0.0
2018-Feb-15 07:30N 34°01' E 131°41'0 0.0
2018-Feb-15 07:00N 34°01' E 131°41'0 0.1
2018-Feb-15 06:24N 34°01' E 131°41'0 0.1
2018-Feb-15 06:00N 34°01' E 131°41'0 0.0
2018-Feb-15 05:12N 34°01' E 131°41'0 0.0
2018-Feb-15 04:57N 34°01' E 131°41'1 2.5
2018-Feb-15 04:30N 34°00' E 131°40'612.2
2018-Feb-15 03:59N 33°54' E 131°42'612.1
2018-Feb-15 03:30N 33°49' E 131°45'611.8
2018-Feb-15 03:00N 33°43' E 131°47'611.6
2018-Feb-15 02:30N 33°38' E 131°50'611.9
2018-Feb-15 02:00N 33°33' E 131°53'612.3
2018-Feb-15 01:30N 33°27' E 131°56'612.4
2018-Feb-15 01:00N 33°21' E 131°59'33510.1
2018-Feb-13 15:54N 34°33' E 138°33'4 7.9
2018-Feb-13 15:22N 34°33' E 138°38'10 7.5
2018-Feb-13 14:06N 34°34' E 138°49'1 6.5
2018-Feb-13 13:59N 34°35' E 138°50'4 7.0
2018-Feb-13 13:28N 34°35' E 138°54'4 7.9
2018-Feb-13 12:54N 34°37' E 138°59'4 9.1
2018-Feb-13 12:30N 34°40' E 139°02'7 9.5
2018-Feb-13 11:47N 34°45' E 139°07'3 9.1
2018-Feb-13 11:29N 34°48' E 139°09'5 9.8
2018-Feb-13 10:57N 34°52' E 139°13'2510.0
2018-Feb-13 08:28N 35°06' E 139°39'610.6
2018-Feb-13 07:56N 35°09' E 139°44'511.3
2018-Feb-13 07:29N 35°14' E 139°46'612.6
2018-Feb-13 07:01N 35°19' E 139°43'611.4
2018-Feb-13 06:30N 35°25' E 139°44'611.7
2018-Feb-13 06:00N 35°28' E 139°49'611.5
2018-Feb-13 05:27N 35°32' E 139°56'510.2
2018-Feb-13 04:58N 35°32' E 140°02'1 0.3
2018-Feb-12 23:25N 35°32' E 140°04'1 2.7
2018-Feb-12 23:00N 35°33' E 140°03'2 3.5
2018-Feb-12 22:30N 35°33' E 140°05'0 0.0
2018-Feb-12 22:00N 35°33' E 140°05'0 0.0
2018-Feb-12 21:30N 35°33' E 140°05'0 0.0
2018-Feb-12 20:57N 35°33' E 140°05'0 0.0
2018-Feb-12 20:30N 35°33' E 140°05'0 0.0
2018-Feb-12 19:57N 35°33' E 140°05'0 0.1
2018-Feb-12 19:27N 35°33' E 140°05'0 0.0
2018-Feb-12 18:57N 35°33' E 140°05'0 0.0
2018-Feb-12 18:27N 35°33' E 140°05'0 0.0
2018-Feb-12 18:00N 35°33' E 140°05'0 0.1
2018-Feb-12 17:27N 35°33' E 140°05'0 0.0
2018-Feb-12 16:57N 35°33' E 140°05'0 0.0
2018-Feb-12 16:30N 35°33' E 140°05'0 0.1
2018-Feb-12 15:57N 35°33' E 140°05'0 0.0
2018-Feb-12 15:15N 35°33' E 140°05'0 0.0
2018-Feb-12 14:57N 35°33' E 140°05'0 0.1
2018-Feb-12 14:30N 35°33' E 140°05'0 0.1
2018-Feb-12 13:57N 35°33' E 140°05'0 0.1
2018-Feb-12 13:27N 35°33' E 140°05'0 0.0
2018-Feb-12 13:00N 35°33' E 140°05'0 0.0
2018-Feb-12 12:27N 35°33' E 140°05'0 0.0
2018-Feb-12 12:00N 35°33' E 140°05'0 0.0
2018-Feb-12 11:30N 35°33' E 140°05'0 0.0
2018-Feb-12 10:57N 35°33' E 140°05'0 0.0
2018-Feb-12 10:30N 35°33' E 140°05'0 0.0
2018-Feb-12 10:00N 35°33' E 140°05'0 0.0
2018-Feb-12 09:27N 35°33' E 140°05'0 0.0
2018-Feb-12 08:57N 35°33' E 140°05'0 0.0
2018-Feb-12 08:27N 35°33' E 140°05'0 0.0
2018-Feb-12 07:57N 35°33' E 140°05'0 0.0
2018-Feb-12 07:27N 35°33' E 140°05'0 0.0
2018-Feb-12 06:57N 35°33' E 140°05'0 0.0
2018-Feb-12 06:15N 35°33' E 140°05'0 0.0
2018-Feb-12 06:00N 35°33' E 140°05'0 0.0
2018-Feb-12 05:27N 35°33' E 140°05'0 0.0
2018-Feb-12 04:57N 35°33' E 140°05'0 0.0
2018-Feb-12 04:09N 35°33' E 140°05'0 0.0
2018-Feb-12 03:57N 35°33' E 140°05'0 0.0
2018-Feb-12 03:30N 35°33' E 140°05'0 0.0
2018-Feb-12 02:57N 35°33' E 140°05'0 0.0
2018-Feb-12 02:27N 35°33' E 140°05'0 0.0
2018-Feb-12 01:57N 35°33' E 140°05'0 0.0
2018-Feb-12 01:27N 35°33' E 140°05'0 0.0
2018-Feb-12 00:57N 35°33' E 140°05'0 0.0
2018-Feb-12 00:27N 35°33' E 140°05'0 0.0
2018-Feb-11 23:57N 35°33' E 140°05'0 0.0
2018-Feb-11 23:21N 35°33' E 140°05'0 0.0
2018-Feb-11 22:57N 35°33' E 140°05'0 0.0
2018-Feb-11 22:30N 35°33' E 140°05'0 0.0
2018-Feb-11 21:57N 35°33' E 140°05'0 0.0
2018-Feb-11 21:27N 35°33' E 140°05'0 0.1
2018-Feb-11 20:57N 35°33' E 140°05'0 0.0
2018-Feb-11 20:27N 35°33' E 140°05'0 0.1
2018-Feb-11 19:57N 35°33' E 140°05'0 0.0
2018-Feb-11 19:27N 35°33' E 140°05'0 0.0
2018-Feb-11 19:00N 35°33' E 140°05'0 0.0
2018-Feb-11 18:27N 35°33' E 140°05'0 0.0
2018-Feb-11 18:00N 35°33' E 140°05'0 0.0
2018-Feb-11 17:30N 35°33' E 140°05'0 0.0
2018-Feb-11 16:57N 35°33' E 140°05'  
Track history (hours):
 
Tides and Currents Weather Stations Pressure Air Temp Water Temp Dewpoint Dewpoint Depression Visibility Wind Speed Wind Dir Waves Ship Positions

Kaihou Maru

Last reported at 2018-Feb-21 16:50 UTC. Time now 2018-Feb-21 17:33 UTC.
Position N 34°58' E 136°39'.

Length 68 m; draft 4.2 m.

Type: Tanker. MMSI: 431000443.

Date/timePositionNaut miles runAvg speedWind from/ knotsBaromVisibWave heightAir tempDewpointWater temp
2018-Feb-21 16:50N 34°58' E 136°39'0 0.0
2018-Feb-21 16:26N 34°58' E 136°39'0 0.0
2018-Feb-21 15:56N 34°58' E 136°39'0 0.0
2018-Feb-21 15:23N 34°58' E 136°39'0 0.0
2018-Feb-21 14:56N 34°58' E 136°39'0 0.0
2018-Feb-21 14:29N 34°58' E 136°39'0 0.0
2018-Feb-21 13:56N 34°58' E 136°39'0 0.0
2018-Feb-21 13:20N 34°58' E 136°39'0 0.0
2018-Feb-21 12:56N 34°58' E 136°39'0 0.0
2018-Feb-21 12:26N 34°58' E 136°39'0 0.0
2018-Feb-21 11:50N 34°58' E 136°39'0 0.0
2018-Feb-21 11:17N 34°58' E 136°39'0 0.0
2018-Feb-21 10:59N 34°58' E 136°39'0 0.0
2018-Feb-21 10:20N 34°58' E 136°39'0 0.0
2018-Feb-21 09:50N 34°58' E 136°39'0 0.0
2018-Feb-21 09:26N 34°58' E 136°39'0 0.0
2018-Feb-21 08:56N 34°58' E 136°39'0 0.0
2018-Feb-21 08:26N 34°58' E 136°39'0 0.0
2018-Feb-21 07:56N 34°58' E 136°39'0 0.0
2018-Feb-21 07:26N 34°58' E 136°39'0 0.0
2018-Feb-21 06:56N 34°58' E 136°39'0 0.0
2018-Feb-21 06:20N 34°58' E 136°39'0 0.0
2018-Feb-21 05:29N 34°58' E 136°39'0 0.0
2018-Feb-21 04:56N 34°58' E 136°39'0 0.0
2018-Feb-21 04:20N 34°58' E 136°39'0 0.0
2018-Feb-21 03:56N 34°58' E 136°39'0 0.0
2018-Feb-21 03:20N 34°58' E 136°39'0 0.0
2018-Feb-21 02:56N 34°58' E 136°39'0 0.0
2018-Feb-21 02:26N 34°58' E 136°39'0 0.1
2018-Feb-21 01:56N 34°58' E 136°39'0 0.0
2018-Feb-21 01:29N 34°58' E 136°39'0 0.0
2018-Feb-21 00:56N 34°58' E 136°39'0 0.2
2018-Feb-21 00:30N 34°58' E 136°39'2 4.1
2018-Feb-21 00:00N 34°57' E 136°42'612.6
2018-Feb-20 23:30N 34°51' E 136°45'8510.6
2018-Feb-20 15:30N 34°32' E 138°25'6 9.2
2018-Feb-20 14:49N 34°34' E 138°33'4 7.9
2018-Feb-20 14:20N 34°34' E 138°37'3 7.9
2018-Feb-20 13:54N 34°35' E 138°41'7 7.2
2018-Feb-20 12:55N 34°35' E 138°50'4 7.7
2018-Feb-20 12:26N 34°36' E 138°54'711.4
2018-Feb-20 11:48N 34°40' E 139°02'413.6
2018-Feb-20 11:30N 34°43' E 139°05'1113.1
2018-Feb-20 10:38N 34°52' E 139°13'212.0
2018-Feb-20 10:29N 34°53' E 139°15'2311.9
2018-Feb-20 08:35N 35°05' E 139°38'112.2
2018-Feb-20 08:30N 35°06' E 139°39'712.5
2018-Feb-20 07:57N 35°11' E 139°45'511.7
2018-Feb-20 07:30N 35°16' E 139°46'612.0
2018-Feb-20 07:00N 35°21' E 139°42'611.1
2018-Feb-20 06:30N 35°26' E 139°45'612.4
2018-Feb-20 06:00N 35°30' E 139°51'712.3
2018-Feb-20 05:25N 35°32' E 139°60'3 0.6
2018-Feb-19 23:51N 35°32' E 140°04'1 2.1
2018-Feb-19 23:31N 35°32' E 140°03'2 1.7
2018-Feb-19 22:10N 35°33' E 140°05'0 0.0
2018-Feb-19 21:22N 35°33' E 140°05'0 0.0
2018-Feb-19 20:58N 35°33' E 140°05'0 0.0
2018-Feb-19 20:22N 35°33' E 140°05'0 0.0
2018-Feb-19 18:58N 35°33' E 140°05'0 0.0
2018-Feb-19 18:28N 35°33' E 140°05'0 0.0
2018-Feb-19 17:58N 35°33' E 140°05'0 0.0
2018-Feb-19 17:28N 35°33' E 140°05'0 0.0
2018-Feb-19 16:58N 35°33' E 140°05'0 0.0
2018-Feb-19 16:28N 35°33' E 140°05'0 0.0
2018-Feb-19 15:58N 35°33' E 140°05'0 0.0
2018-Feb-19 15:28N 35°33' E 140°05'0 0.0
2018-Feb-19 14:58N 35°33' E 140°05'0 0.0
2018-Feb-19 14:28N 35°33' E 140°05'0 0.0
2018-Feb-19 13:58N 35°33' E 140°05'0 0.0
2018-Feb-19 13:28N 35°33' E 140°05'0 0.0
2018-Feb-19 12:58N 35°33' E 140°05'0 0.0
2018-Feb-19 12:28N 35°33' E 140°05'0 0.0
2018-Feb-19 11:58N 35°33' E 140°05'0 0.0
2018-Feb-19 11:28N 35°33' E 140°05'0 0.0
2018-Feb-19 10:58N 35°33' E 140°05'0 0.0
2018-Feb-19 10:28N 35°33' E 140°05'0 0.0
2018-Feb-19 09:58N 35°33' E 140°05'0 0.0
2018-Feb-19 09:22N 35°33' E 140°05'0 0.0
2018-Feb-19 08:58N 35°33' E 140°05'0 0.1
2018-Feb-19 08:22N 35°33' E 140°05'0 0.1
2018-Feb-19 07:40N 35°33' E 140°05'0 0.0
2018-Feb-19 07:10N 35°33' E 140°05'0 0.0
2018-Feb-19 06:40N 35°33' E 140°05'0 0.0
2018-Feb-19 06:28N 35°33' E 140°05'0 0.0
2018-Feb-19 04:58N 35°33' E 140°05'0 0.0
2018-Feb-19 04:22N 35°33' E 140°05'0 0.0
2018-Feb-19 03:58N 35°33' E 140°05'0 0.0
2018-Feb-19 03:28N 35°33' E 140°05'0 0.0
2018-Feb-19 02:58N 35°33' E 140°05'0 0.0
2018-Feb-19 02:07N 35°33' E 140°05'0 0.0
2018-Feb-19 01:58N 35°33' E 140°05'0 0.0
2018-Feb-19 01:28N 35°33' E 140°05'0 0.0
2018-Feb-19 00:55N 35°33' E 140°05'0 0.0
2018-Feb-18 23:46N 35°33' E 140°05'0 0.8
2018-Feb-18 23:30N 35°33' E 140°05'3 6.8
2018-Feb-18 23:00N 35°34' E 140°01'5 1.7
2018-Feb-18 19:54N 35°36' E 139°55'0 0.1
2018-Feb-18 19:24N 35°36' E 139°55'0 0.0
2018-Feb-18 18:18N 35°36' E 139°55'0 0.0
2018-Feb-18 16:54N 35°36' E 139°55'0 0.0
2018-Feb-18 16:30N 35°36' E 139°55'0 0.0
2018-Feb-18 00:29N 35°36' E 139°55'4 9.0
2018-Feb-18 00:01N 35°32' E 139°53'611.1
2018-Feb-17 23:31N 35°27' E 139°50'611.0
2018-Feb-17 23:00N 35°23' E 139°46'5 9.9
2018-Feb-17 22:31N 35°18' E 139°45'510.7
2018-Feb-17 22:01N 35°13' E 139°47'511.0
2018-Feb-17 21:30N 35°07' E 139°45'510.6
2018-Feb-17 21:00N 35°03' E 139°42'611.3
2018-Feb-17 20:29N 34°59' E 139°36'911.7
2018-Feb-17 19:44N 34°54' E 139°27'411.9
2018-Feb-17 19:24N 34°52' E 139°23'511.7
2018-Feb-17 18:58N 34°49' E 139°18'711.6
2018-Feb-17 18:24N 34°45' E 139°12'510.7
2018-Feb-17 17:54N 34°42' E 139°07'411.0
2018-Feb-17 17:30N 34°39' E 139°03'611.5
2018-Feb-17 17:00N 34°36' E 138°57'612.0
2018-Feb-17 16:29N 34°34' E 138°50'611.9
2018-Feb-17 15:58N 34°34' E 138°42'611.9
2018-Feb-17 15:25N 34°34' E 138°34'33710.3
2018-Feb-16 06:53N 33°23' E 131°58'411.5
2018-Feb-16 06:30N 33°26' E 131°54'713.3
2018-Feb-16 06:00N 33°32' E 131°51'813.4
2018-Feb-16 05:26N 33°39' E 131°47'613.2
2018-Feb-16 05:00N 33°44' E 131°44'1012.9
2018-Feb-16 04:14N 33°53' E 131°40'312.0
2018-Feb-16 04:00N 33°56' E 131°40'611.4
2018-Feb-16 03:28N 34°02' E 131°42'3 0.8
2018-Feb-15 23:35N 34°03' E 131°45'0 0.5
2018-Feb-15 23:30N 34°03' E 131°45'2 3.9
2018-Feb-15 23:00N 34°02' E 131°43'2 2.4
2018-Feb-15 22:12N 34°01' E 131°41'0 0.0
2018-Feb-15 22:00N 34°01' E 131°41'0 0.0
2018-Feb-15 21:24N 34°01' E 131°41'0 0.0
2018-Feb-15 20:54N 34°01' E 131°41'0 0.0
2018-Feb-15 20:24N 34°01' E 131°41'0 0.0
2018-Feb-15 20:00N 34°01' E 131°41'0 0.0
2018-Feb-15 19:30N 34°01' E 131°41'0 0.0
2018-Feb-15 18:42N 34°01' E 131°41'0 0.0
2018-Feb-15 18:30N 34°01' E 131°41'0 0.0
2018-Feb-15 18:00N 34°01' E 131°41'0 0.1
2018-Feb-15 17:18N 34°01' E 131°41'0 0.2
2018-Feb-15 17:00N 34°01' E 131°41'0 0.0
2018-Feb-15 16:30N 34°01' E 131°41'0 0.1
2018-Feb-15 16:00N 34°01' E 131°41'0 0.0
2018-Feb-15 15:24N 34°01' E 131°41'0 0.0
2018-Feb-15 15:00N 34°01' E 131°41'0 0.0
2018-Feb-15 14:24N 34°01' E 131°41'0 0.0
2018-Feb-15 14:00N 34°01' E 131°41'0 0.0
2018-Feb-15 13:30N 34°01' E 131°41'0 0.0
2018-Feb-15 13:00N 34°01' E 131°41'0 0.0
2018-Feb-15 12:30N 34°01' E 131°41'0 0.0
2018-Feb-15 11:54N 34°01' E 131°41'0 0.0
2018-Feb-15 11:30N 34°01' E 131°41'0 0.0
2018-Feb-15 11:00N 34°01' E 131°41'0 0.0
2018-Feb-15 10:30N 34°01' E 131°41'0 0.0
2018-Feb-15 09:54N 34°01' E 131°41'0 0.0
2018-Feb-15 09:30N 34°01' E 131°41'0 0.1
2018-Feb-15 08:54N 34°01' E 131°41'0 0.0
2018-Feb-15 08:18N 34°01' E 131°41'0 0.0
2018-Feb-15 08:00N 34°01' E 131°41'0 0.0
2018-Feb-15 07:30N 34°01' E 131°41'0 0.0
2018-Feb-15 07:00N 34°01' E 131°41'0 0.1
2018-Feb-15 06:24N 34°01' E 131°41'0 0.1
2018-Feb-15 06:00N 34°01' E 131°41'0 0.0
2018-Feb-15 05:12N 34°01' E 131°41'0 0.0
2018-Feb-15 04:57N 34°01' E 131°41'1 2.5
2018-Feb-15 04:30N 34°00' E 131°40'612.2
2018-Feb-15 03:59N 33°54' E 131°42'612.1
2018-Feb-15 03:30N 33°49' E 131°45'611.8
2018-Feb-15 03:00N 33°43' E 131°47'611.6
2018-Feb-15 02:30N 33°38' E 131°50'611.9
2018-Feb-15 02:00N 33°33' E 131°53'612.3
2018-Feb-15 01:30N 33°27' E 131°56'612.4
2018-Feb-15 01:00N 33°21' E 131°59'33510.1
2018-Feb-13 15:54N 34°33' E 138°33'4 7.9
2018-Feb-13 15:22N 34°33' E 138°38'10 7.5
2018-Feb-13 14:06N 34°34' E 138°49'1 6.5
2018-Feb-13 13:59N 34°35' E 138°50'4 7.0
2018-Feb-13 13:28N 34°35' E 138°54'4 7.9
2018-Feb-13 12:54N 34°37' E 138°59'4 9.1
2018-Feb-13 12:30N 34°40' E 139°02'7 9.5
2018-Feb-13 11:47N 34°45' E 139°07'3 9.1
2018-Feb-13 11:29N 34°48' E 139°09'5 9.8
2018-Feb-13 10:57N 34°52' E 139°13'2510.0
2018-Feb-13 08:28N 35°06' E 139°39'610.6
2018-Feb-13 07:56N 35°09' E 139°44'511.3
2018-Feb-13 07:29N 35°14' E 139°46'612.6
2018-Feb-13 07:01N 35°19' E 139°43'611.4
2018-Feb-13 06:30N 35°25' E 139°44'611.7
2018-Feb-13 06:00N 35°28' E 139°49'611.5
2018-Feb-13 05:27N 35°32' E 139°56'510.2
2018-Feb-13 04:58N 35°32' E 140°02'1 0.3
2018-Feb-12 23:25N 35°32' E 140°04'1 2.7
2018-Feb-12 23:00N 35°33' E 140°03'2 3.5
2018-Feb-12 22:30N 35°33' E 140°05'0 0.0
2018-Feb-12 22:00N 35°33' E 140°05'0 0.0
2018-Feb-12 21:30N 35°33' E 140°05'0 0.0
2018-Feb-12 20:57N 35°33' E 140°05'0 0.0
2018-Feb-12 20:30N 35°33' E 140°05'0 0.0
2018-Feb-12 19:57N 35°33' E 140°05'0 0.1
2018-Feb-12 19:27N 35°33' E 140°05'0 0.0
2018-Feb-12 18:57N 35°33' E 140°05'0 0.0
2018-Feb-12 18:27N 35°33' E 140°05'0 0.0
2018-Feb-12 18:00N 35°33' E 140°05'0 0.1
2018-Feb-12 17:27N 35°33' E 140°05'0 0.0
2018-Feb-12 16:57N 35°33' E 140°05'0 0.0
2018-Feb-12 16:30N 35°33' E 140°05'0 0.1
2018-Feb-12 15:57N 35°33' E 140°05'0 0.0
2018-Feb-12 15:15N 35°33' E 140°05'0 0.0
2018-Feb-12 14:57N 35°33' E 140°05'0 0.1
2018-Feb-12 14:30N 35°33' E 140°05'0 0.1
2018-Feb-12 13:57N 35°33' E 140°05'0 0.1
2018-Feb-12 13:27N 35°33' E 140°05'0 0.0
2018-Feb-12 13:00N 35°33' E 140°05'0 0.0
2018-Feb-12 12:27N 35°33' E 140°05'0 0.0
2018-Feb-12 12:00N 35°33' E 140°05'0 0.0
2018-Feb-12 11:30N 35°33' E 140°05'0 0.0
2018-Feb-12 10:57N 35°33' E 140°05'0 0.0
2018-Feb-12 10:30N 35°33' E 140°05'0 0.0
2018-Feb-12 10:00N 35°33' E 140°05'0 0.0
2018-Feb-12 09:27N 35°33' E 140°05'0 0.0
2018-Feb-12 08:57N 35°33' E 140°05'0 0.0
2018-Feb-12 08:27N 35°33' E 140°05'0 0.0
2018-Feb-12 07:57N 35°33' E 140°05'0 0.0
2018-Feb-12 07:27N 35°33' E 140°05'0 0.0
2018-Feb-12 06:57N 35°33' E 140°05'0 0.0
2018-Feb-12 06:15N 35°33' E 140°05'0 0.0
2018-Feb-12 06:00N 35°33' E 140°05'0 0.0
2018-Feb-12 05:27N 35°33' E 140°05'0 0.0
2018-Feb-12 04:57N 35°33' E 140°05'0 0.0
2018-Feb-12 04:09N 35°33' E 140°05'0 0.0
2018-Feb-12 03:57N 35°33' E 140°05'0 0.0
2018-Feb-12 03:30N 35°33' E 140°05'0 0.0
2018-Feb-12 02:57N 35°33' E 140°05'0 0.0
2018-Feb-12 02:27N 35°33' E 140°05'0 0.0
2018-Feb-12 01:57N 35°33' E 140°05'0 0.0
2018-Feb-12 01:27N 35°33' E 140°05'0 0.0
2018-Feb-12 00:57N 35°33' E 140°05'0 0.0
2018-Feb-12 00:27N 35°33' E 140°05'0 0.0
2018-Feb-11 23:57N 35°33' E 140°05'0 0.0
2018-Feb-11 23:21N 35°33' E 140°05'0 0.0
2018-Feb-11 22:57N 35°33' E 140°05'0 0.0
2018-Feb-11 22:30N 35°33' E 140°05'0 0.0
2018-Feb-11 21:57N 35°33' E 140°05'0 0.0
2018-Feb-11 21:27N 35°33' E 140°05'0 0.1
2018-Feb-11 20:57N 35°33' E 140°05'0 0.0
2018-Feb-11 20:27N 35°33' E 140°05'0 0.1
2018-Feb-11 19:57N 35°33' E 140°05'0 0.0
2018-Feb-11 19:27N 35°33' E 140°05'0 0.0
2018-Feb-11 19:00N 35°33' E 140°05'0 0.0
2018-Feb-11 18:27N 35°33' E 140°05'0 0.0
2018-Feb-11 18:00N 35°33' E 140°05'0 0.0
2018-Feb-11 17:30N 35°33' E 140°05'0 0.0
2018-Feb-11 16:57N 35°33' E 140°05'  

Dump ship's entire track history